createdAt,value
2022-12-05T00:01:26.703Z,100322.95
2022-12-05T00:03:59.523Z,100317.55
2022-12-05T00:06:31.946Z,100319.05
2022-12-05T00:09:02.842Z,100317.52
2022-12-05T00:11:36.125Z,100313.70
2022-12-05T00:14:08.615Z,100316.51
2022-12-05T00:16:41.230Z,100318.39
2022-12-05T00:19:14.389Z,100316.25
2022-12-05T00:21:45.733Z,100313.68
2022-12-05T00:24:19.629Z,100316.66
2022-12-05T00:26:50.242Z,100319.35
2022-12-05T00:29:20.849Z,100323.63
2022-12-05T00:31:51.529Z,100323.85
2022-12-05T00:34:22.360Z,100325.13
2022-12-05T00:36:53.200Z,100328.96
2022-12-05T00:39:23.926Z,100330.46
2022-12-05T00:41:54.677Z,100328.11
2022-12-05T00:44:25.498Z,100327.78
2022-12-05T00:46:56.154Z,100331.25
2022-12-05T00:49:26.809Z,100325.70
2022-12-05T00:51:57.471Z,100332.93
2022-12-05T00:54:28.132Z,100332.55
2022-12-05T00:56:58.878Z,100335.61
2022-12-05T00:59:29.648Z,100335.95
2022-12-05T01:02:00.682Z,100332.79
2022-12-05T01:04:31.548Z,100328.38
2022-12-05T01:07:02.073Z,100325.38
2022-12-05T01:09:32.742Z,100331.66
2022-12-05T01:12:03.419Z,100327.40
2022-12-05T01:14:34.797Z,100331.35
2022-12-05T01:17:05.483Z,100329.78
2022-12-05T01:19:36.403Z,100326.25
2022-12-05T01:22:07.080Z,100331.96
2022-12-05T01:24:37.705Z,100334.72
2022-12-05T01:27:08.395Z,100331.38
2022-12-05T01:29:39.096Z,100335.86
2022-12-05T01:32:10.275Z,100330.39
2022-12-05T01:34:40.923Z,100329.42
2022-12-05T01:37:11.755Z,100327.20
2022-12-05T01:39:42.514Z,100330.80
2022-12-05T01:42:14.398Z,100334.68
2022-12-05T01:45:07.792Z,100337.48
2022-12-05T01:47:39.070Z,100342.19
2022-12-05T01:50:11.581Z,100343.23
2022-12-05T01:52:42.676Z,100349.50
2022-12-05T01:55:16.843Z,100342.34
2022-12-05T01:57:49.093Z,100340.79
2022-12-05T02:00:22.194Z,100339.64
2022-12-05T02:02:56.822Z,100339.39
2022-12-05T02:05:29.411Z,100339.14
2022-12-05T02:08:02.249Z,100337.08
2022-12-05T02:10:37.530Z,100333.38
2022-12-05T02:13:19.092Z,100332.52
2022-12-05T02:15:57.912Z,100336.35
2022-12-05T02:18:41.145Z,100338.66
2022-12-05T02:21:34.697Z,100337.07
2022-12-05T02:24:21.245Z,100339.16
2022-12-05T02:27:18.621Z,100342.23
2022-12-05T02:30:01.426Z,100341.27
2022-12-05T02:32:47.033Z,100344.17
2022-12-05T02:35:28.970Z,100341.98
2022-12-05T02:38:09.816Z,100344.95
2022-12-05T02:40:48.410Z,100343.73
2022-12-05T02:43:23.663Z,100348.20
2022-12-05T02:45:59.700Z,100343.19
2022-12-05T02:48:32.277Z,100344.88
2022-12-05T02:51:05.636Z,100338.49
2022-12-05T02:53:38.796Z,100334.44
2022-12-05T02:56:11.106Z,100332.70
2022-12-05T02:58:49.513Z,100333.91
2022-12-05T03:01:22.916Z,100327.42
2022-12-05T03:03:54.623Z,100326.83
2022-12-05T03:06:29.824Z,100326.91
2022-12-05T03:09:06.342Z,100324.96
2022-12-05T03:11:42.925Z,100327.95
2022-12-05T03:14:21.551Z,100331.40
2022-12-05T03:16:55.026Z,100330.95
2022-12-05T03:19:31.406Z,100331.38
2022-12-05T03:22:07.901Z,100329.69
2022-12-05T03:24:41.598Z,100325.27
2022-12-05T03:27:23.930Z,100324.44
2022-12-05T03:30:01.931Z,100329.29
2022-12-05T03:32:38.889Z,100329.27
2022-12-05T03:35:19.009Z,100332.85
2022-12-05T03:37:54.075Z,100332.52
2022-12-05T03:40:33.742Z,100338.15
2022-12-05T03:43:13.027Z,100339.08
2022-12-05T03:45:49.214Z,100345.30
2022-12-05T03:48:25.014Z,100344.70
2022-12-05T03:50:57.397Z,100344.88
2022-12-05T03:53:33.207Z,100349.08
2022-12-05T03:56:08.847Z,100345.26
2022-12-05T03:58:44.480Z,100338.56
2022-12-05T04:01:18.655Z,100342.73
2022-12-05T04:03:53.980Z,100346.27
2022-12-05T04:06:30.202Z,100343.77
2022-12-05T04:09:03.858Z,100347.38
2022-12-05T04:11:38.818Z,100350.88
2022-12-05T04:14:13.889Z,100347.33
2022-12-05T04:17:06.157Z,100346.08
2022-12-05T04:20:01.740Z,100351.73
2022-12-05T04:22:32.933Z,100353.88
2022-12-05T04:25:24.191Z,100355.77
2022-12-05T04:28:00.856Z,100355.17
2022-12-05T04:30:38.027Z,100356.22
2022-12-05T04:33:15.138Z,100354.25
2022-12-05T04:35:51.725Z,100359.15
2022-12-05T04:38:27.734Z,100356.14
2022-12-05T04:41:01.906Z,100355.84
2022-12-05T04:43:35.555Z,100358.03
2022-12-05T04:46:10.758Z,100354.13
2022-12-05T04:48:43.564Z,100358.67
2022-12-05T04:51:19.691Z,100359.60
2022-12-05T04:53:55.583Z,100359.21
2022-12-05T04:56:31.166Z,100358.36
2022-12-05T04:59:02.048Z,100361.01
2022-12-05T05:01:38.886Z,100366.47
2022-12-05T05:04:14.846Z,100369.48
2022-12-05T05:06:46.255Z,100364.74
2022-12-05T05:09:16.818Z,100375.64
2022-12-05T05:11:47.539Z,100377.66
2022-12-05T05:14:18.220Z,100379.15
2022-12-05T05:16:49.062Z,100376.07
2022-12-05T05:19:19.678Z,100378.17
2022-12-05T05:21:54.507Z,100378.63
2022-12-05T05:24:26.438Z,100379.84
2022-12-05T05:26:57.797Z,100378.63
2022-12-05T05:29:28.600Z,100378.54
2022-12-05T05:31:59.467Z,100372.44
2022-12-05T05:34:30.400Z,100378.86
2022-12-05T05:37:03.456Z,100382.05
2022-12-05T05:39:34.241Z,100384.25
2022-12-05T05:42:05.159Z,100388.95
2022-12-05T05:44:36.003Z,100391.73
2022-12-05T05:47:06.853Z,100393.30
2022-12-05T05:49:37.553Z,100389.83
2022-12-05T05:52:08.488Z,100389.98
2022-12-05T05:54:39.387Z,100392.09
2022-12-05T05:57:10.193Z,100395.82
2022-12-05T05:59:40.813Z,100395.63
2022-12-05T06:02:11.376Z,100398.11
2022-12-05T06:04:42.000Z,100398.70
2022-12-05T06:07:12.693Z,100400.63
2022-12-05T06:09:43.455Z,100405.29
2022-12-05T06:12:14.176Z,100401.10
2022-12-05T06:14:44.797Z,100402.23
2022-12-05T06:17:15.868Z,100404.39
2022-12-05T06:19:46.626Z,100407.29
2022-12-05T06:22:17.487Z,100410.70
2022-12-05T06:24:48.107Z,100406.65
2022-12-05T06:27:18.883Z,100405.34
2022-12-05T06:29:49.536Z,100409.77
2022-12-05T06:32:20.126Z,100422.66
2022-12-05T06:34:50.889Z,100426.52
2022-12-05T06:37:21.595Z,100431.66
2022-12-05T06:39:53.581Z,100436.54
2022-12-05T06:42:24.355Z,100442.25
2022-12-05T06:44:55.051Z,100447.05
2022-12-05T06:47:25.855Z,100445.89
2022-12-05T06:49:56.897Z,100454.83
2022-12-05T06:52:27.947Z,100461.30
2022-12-05T06:54:59.857Z,100463.91
2022-12-05T06:57:32.136Z,100465.23
2022-12-05T07:00:17.170Z,100465.52
2022-12-05T07:02:46.296Z,100466.48
2022-12-05T07:05:17.579Z,100466.13
2022-12-05T07:07:48.427Z,100468.50
2022-12-05T07:10:19.207Z,100468.98
2022-12-05T07:12:49.785Z,100470.25
2022-12-05T07:15:20.755Z,100468.04
2022-12-05T07:17:51.524Z,100464.13
2022-12-05T07:20:22.183Z,100461.73
2022-12-05T07:22:52.857Z,100464.32
2022-12-05T07:25:24.921Z,100468.58
2022-12-05T07:27:55.680Z,100471.48
2022-12-05T07:30:26.520Z,100469.55
2022-12-05T07:32:57.272Z,100458.78
2022-12-05T07:35:27.957Z,100462.52
2022-12-05T07:37:58.859Z,100465.00
2022-12-05T07:40:29.529Z,100465.48
2022-12-05T07:43:00.167Z,100466.13
2022-12-05T07:45:30.835Z,100469.73
2022-12-05T07:48:01.589Z,100482.46
2022-12-05T07:50:32.438Z,100484.95
2022-12-05T07:53:03.219Z,100481.29
2022-12-05T07:55:33.822Z,100484.98
2022-12-05T07:58:04.550Z,100485.25
2022-12-05T08:00:35.180Z,100490.86
2022-12-05T08:03:06.285Z,100493.15
2022-12-05T08:05:37.811Z,100496.77
2022-12-05T08:08:08.871Z,100500.52
2022-12-05T08:10:39.679Z,100506.40
2022-12-05T08:13:10.340Z,100511.84
2022-12-05T08:15:41.031Z,100512.84
2022-12-05T08:18:11.686Z,100513.27
2022-12-05T08:20:42.621Z,100510.52
2022-12-05T08:23:13.311Z,100509.02
2022-12-05T08:25:44.392Z,100512.78
2022-12-05T08:28:15.146Z,100511.95
2022-12-05T08:30:46.086Z,100510.58
2022-12-05T08:33:17.106Z,100511.92
2022-12-05T08:35:47.789Z,100513.11
2022-12-05T08:38:18.558Z,100517.90
2022-12-05T08:40:49.187Z,100520.75
2022-12-05T08:43:20.155Z,100524.23
2022-12-05T08:45:54.059Z,100519.64
2022-12-05T08:48:29.268Z,100511.48
2022-12-05T08:51:00.671Z,100519.80
2022-12-05T08:53:31.440Z,100513.53
2022-12-05T08:56:05.096Z,100513.11
2022-12-05T08:58:36.263Z,100516.08
2022-12-05T09:01:08.785Z,100516.88
2022-12-05T09:03:43.320Z,100523.75
2022-12-05T09:06:19.494Z,100523.95
2022-12-05T09:08:51.093Z,100527.95
2022-12-05T09:11:24.757Z,100530.58
2022-12-05T09:13:59.668Z,100530.44
2022-12-05T09:16:37.575Z,100534.65
2022-12-05T09:19:14.439Z,100539.89
2022-12-05T09:21:46.231Z,100545.12
2022-12-05T09:24:17.624Z,100549.70
2022-12-05T09:26:48.693Z,100553.33
2022-12-05T09:29:20.001Z,100554.67
2022-12-05T09:31:52.258Z,100559.30
2022-12-05T09:34:24.826Z,100560.65
2022-12-05T09:37:10.678Z,100567.55
2022-12-05T09:39:48.541Z,100567.10
2022-12-05T09:42:39.068Z,100566.96
2022-12-05T09:45:18.017Z,100559.27
2022-12-05T09:47:51.076Z,100564.23
2022-12-05T09:50:25.064Z,100557.39
2022-12-05T09:53:05.248Z,100560.92
2022-12-05T09:55:44.885Z,100564.58
2022-12-05T09:58:31.171Z,100561.48
2022-12-05T10:01:11.191Z,100561.64
2022-12-05T10:03:48.696Z,100563.95
2022-12-05T10:06:25.174Z,100563.84
2022-12-05T10:09:12.114Z,100566.50
2022-12-05T10:11:48.525Z,100566.77
2022-12-05T10:14:27.674Z,100569.36
2022-12-05T10:17:04.280Z,100566.86
2022-12-05T10:19:40.641Z,100571.55
2022-12-05T10:22:20.482Z,100572.17
2022-12-05T10:24:57.689Z,100574.31
2022-12-05T10:27:39.498Z,100570.59
2022-12-05T10:30:18.237Z,100572.12
2022-12-05T10:32:55.967Z,100569.65
2022-12-05T10:35:28.615Z,100567.21
2022-12-05T10:38:01.487Z,100567.25
2022-12-05T10:40:38.666Z,100562.94
2022-12-05T10:43:13.223Z,100561.02
2022-12-05T10:45:46.653Z,100558.54
2022-12-05T10:48:20.654Z,100559.52
2022-12-05T10:50:53.777Z,100556.67
2022-12-05T10:53:28.937Z,100553.93
2022-12-05T10:56:29.339Z,100548.40
2022-12-05T10:58:59.590Z,100552.05
2022-12-05T11:01:31.917Z,100553.31
2022-12-05T11:04:11.986Z,100552.71
2022-12-05T11:06:53.565Z,100560.14
2022-12-05T11:09:26.439Z,100559.00
2022-12-05T11:12:13.121Z,100556.70
2022-12-05T11:14:54.487Z,100557.30
2022-12-05T11:17:28.777Z,100551.02
2022-12-05T11:19:59.906Z,100549.71
2022-12-05T11:22:38.018Z,100552.77
2022-12-05T11:25:31.603Z,100557.17
2022-12-05T11:28:18.450Z,100556.50
2022-12-05T11:30:59.922Z,100553.05
2022-12-05T11:33:32.822Z,100547.16
2022-12-05T11:36:12.773Z,100544.10
2022-12-05T11:38:44.256Z,100549.19
2022-12-05T11:41:37.078Z,100552.06
2022-12-05T11:44:25.679Z,100552.34
2022-12-05T11:47:09.938Z,100551.89
2022-12-05T11:50:02.770Z,100554.05
2022-12-05T11:52:48.649Z,100550.61
2022-12-05T11:55:25.931Z,100555.45
2022-12-05T11:58:34.451Z,100554.83
2022-12-05T12:01:21.428Z,100552.30
2022-12-05T12:04:15.051Z,100548.36
2022-12-05T12:06:56.075Z,100552.73
2022-12-05T12:09:42.235Z,100546.89
2022-12-05T12:12:23.642Z,100545.20
2022-12-05T12:15:04.546Z,100544.97
2022-12-05T12:17:45.903Z,100538.35
2022-12-05T12:20:36.916Z,100537.60
2022-12-05T12:23:17.439Z,100538.09
2022-12-05T12:26:02.317Z,100537.16
2022-12-05T12:28:41.723Z,100537.51
2022-12-05T12:31:39.880Z,100529.70
2022-12-05T12:34:30.393Z,100519.10
2022-12-05T12:37:09.681Z,100518.43
2022-12-05T12:39:50.683Z,100518.02
2022-12-05T12:42:25.866Z,100523.21
2022-12-05T12:45:37.376Z,100519.48
2022-12-05T12:48:36.533Z,100517.89
2022-12-05T12:51:12.932Z,100512.96
2022-12-05T12:54:03.239Z,100510.48
2022-12-05T12:56:43.733Z,100514.67
2022-12-05T12:59:31.025Z,100510.92
2022-12-05T13:02:11.051Z,100516.56
2022-12-05T13:04:51.406Z,100518.95
2022-12-05T13:07:28.166Z,100517.40
2022-12-05T13:10:03.598Z,100520.48
2022-12-05T13:12:40.304Z,100522.40
2022-12-05T13:15:17.644Z,100521.66
2022-12-05T13:17:50.117Z,100523.81
2022-12-05T13:20:22.752Z,100524.20
2022-12-05T13:22:54.913Z,100523.64
2022-12-05T13:25:30.538Z,100525.81
2022-12-05T13:28:04.134Z,100525.66
2022-12-05T13:30:56.195Z,100522.59
2022-12-05T13:33:29.814Z,100529.34
2022-12-05T13:36:26.203Z,100529.75
2022-12-05T13:39:19.669Z,100532.61
2022-12-05T13:42:11.233Z,100539.39
2022-12-05T13:44:44.741Z,100539.99
2022-12-05T13:47:29.904Z,100549.55
2022-12-05T13:50:09.906Z,100550.55
2022-12-05T13:52:48.325Z,100549.50
2022-12-05T13:55:35.428Z,100550.95
2022-12-05T13:58:45.894Z,100550.63
2022-12-05T14:01:55.995Z,100555.86
2022-12-05T14:04:51.614Z,100556.94
2022-12-05T14:07:45.809Z,100557.14
2022-12-05T14:10:21.357Z,100557.21
2022-12-05T14:12:56.193Z,100554.15
2022-12-05T14:15:33.351Z,100551.02
2022-12-05T14:18:10.486Z,100550.99
2022-12-05T14:21:01.251Z,100550.89
2022-12-05T14:24:02.172Z,100546.16
2022-12-05T14:26:49.441Z,100547.96
2022-12-05T14:29:49.168Z,100548.27
2022-12-05T14:32:26.568Z,100545.69
2022-12-05T14:35:05.342Z,100549.80
2022-12-05T14:37:39.200Z,100547.67
2022-12-05T14:40:22.970Z,100547.35
2022-12-05T14:43:00.396Z,100547.21
2022-12-05T14:45:36.249Z,100549.40
2022-12-05T14:48:26.062Z,100552.83
2022-12-05T14:50:58.353Z,100555.09
2022-12-05T14:53:38.532Z,100561.15
2022-12-05T14:56:24.399Z,100560.68
2022-12-05T14:59:00.399Z,100561.59
2022-12-05T15:01:35.627Z,100559.59
2022-12-05T15:04:24.626Z,100558.83
2022-12-05T15:06:59.294Z,100564.48
2022-12-05T15:09:48.903Z,100567.10
2022-12-05T15:12:24.272Z,100564.68
2022-12-05T15:15:02.587Z,100567.52
2022-12-05T15:17:43.554Z,100566.33
2022-12-05T15:20:21.666Z,100568.67
2022-12-05T15:22:52.648Z,100566.44
2022-12-05T15:25:32.928Z,100566.33
2022-12-05T15:28:07.057Z,100571.50
2022-12-05T15:30:40.659Z,100571.72
2022-12-05T15:33:14.573Z,100575.85
2022-12-05T15:35:51.731Z,100574.63
2022-12-05T15:38:28.038Z,100573.46
2022-12-05T15:40:58.784Z,100574.60
2022-12-05T15:43:37.410Z,100575.48
2022-12-05T15:46:24.318Z,100579.52
2022-12-05T15:48:57.758Z,100577.91
2022-12-05T15:51:36.352Z,100576.70
2022-12-05T15:54:13.546Z,100579.55
2022-12-05T15:56:48.764Z,100580.05
2022-12-05T15:59:23.416Z,100579.55
2022-12-05T16:02:00.748Z,100577.50
2022-12-05T16:04:35.396Z,100575.87
2022-12-05T16:07:11.187Z,100584.23
2022-12-05T16:09:45.671Z,100586.58
2022-12-05T16:12:34.354Z,100592.02
2022-12-05T16:15:11.937Z,100593.08
2022-12-05T16:17:46.555Z,100594.05
2022-12-05T16:20:29.542Z,100593.46
2022-12-05T16:23:04.547Z,100595.35
2022-12-05T16:25:37.592Z,100600.80
2022-12-05T16:28:19.375Z,100600.34
2022-12-05T16:31:01.812Z,100602.30
2022-12-05T16:33:36.561Z,100601.40
2022-12-05T16:36:14.481Z,100593.96
2022-12-05T16:38:46.926Z,100592.80
2022-12-05T16:41:18.588Z,100594.44
2022-12-05T16:43:49.646Z,100595.77
2022-12-05T16:46:46.960Z,100601.83
2022-12-05T16:49:33.775Z,100604.38
2022-12-05T16:52:14.456Z,100605.60
2022-12-05T16:54:46.875Z,100608.79
2022-12-05T16:57:18.902Z,100605.87
2022-12-05T16:59:50.163Z,100612.05
2022-12-05T17:02:21.483Z,100612.57
2022-12-05T17:04:53.558Z,100607.71
2022-12-05T17:07:24.342Z,100607.88
2022-12-05T17:09:55.091Z,100606.15
2022-12-05T17:12:27.201Z,100606.66
2022-12-05T17:14:58.322Z,100606.73
2022-12-05T17:17:29.194Z,100608.72
2022-12-05T17:19:59.946Z,100612.13
2022-12-05T17:22:30.616Z,100616.36
2022-12-05T17:25:01.533Z,100618.67
2022-12-05T17:27:32.474Z,100621.36
2022-12-05T17:30:03.116Z,100617.08
2022-12-05T17:32:33.857Z,100620.27
2022-12-05T17:35:13.353Z,100617.64
2022-12-05T17:37:44.358Z,100614.56
2022-12-05T17:40:16.389Z,100611.66
2022-12-05T17:42:47.305Z,100610.80
2022-12-05T17:45:19.069Z,100613.02
2022-12-05T17:47:49.867Z,100613.02
2022-12-05T17:50:22.722Z,100610.14
2022-12-05T17:52:56.252Z,100611.95
2022-12-05T17:55:29.981Z,100608.25
2022-12-05T17:58:00.614Z,100612.64
2022-12-05T18:00:31.779Z,100611.16
2022-12-05T18:03:02.556Z,100619.48
2022-12-05T18:05:33.367Z,100620.36
2022-12-05T18:08:04.157Z,100621.79
2022-12-05T18:10:35.027Z,100620.91
2022-12-05T18:13:05.733Z,100619.73
2022-12-05T18:15:41.037Z,100623.33
2022-12-05T18:18:17.437Z,100623.80
2022-12-05T18:20:48.403Z,100628.35
2022-12-05T18:23:19.180Z,100627.10
2022-12-05T18:26:00.184Z,100633.73
2022-12-05T18:28:30.928Z,100629.67
2022-12-05T18:31:10.158Z,100627.66
2022-12-05T18:33:42.640Z,100621.11
2022-12-05T18:36:17.188Z,100620.68
2022-12-05T18:38:52.758Z,100621.77
2022-12-05T18:41:26.649Z,100622.79
2022-12-05T18:43:57.506Z,100630.52
2022-12-05T18:46:28.267Z,100635.70
2022-12-05T18:49:03.289Z,100638.94
2022-12-05T18:51:34.841Z,100641.84
2022-12-05T18:54:05.464Z,100647.48
2022-12-05T18:56:38.261Z,100643.84
2022-12-05T18:59:11.775Z,100656.54
2022-12-05T19:01:42.928Z,100659.60
2022-12-05T19:04:15.916Z,100660.73
2022-12-05T19:06:53.769Z,100661.56
2022-12-05T19:09:27.147Z,100660.37
2022-12-05T19:11:59.631Z,100661.45
2022-12-05T19:14:33.127Z,100661.03
2022-12-05T19:17:05.509Z,100663.73
2022-12-05T19:19:36.359Z,100661.29
2022-12-05T19:22:07.029Z,100655.58
2022-12-05T19:24:38.034Z,100654.65
2022-12-05T19:27:08.760Z,100652.73
2022-12-05T19:29:39.486Z,100653.48
2022-12-05T19:32:10.405Z,100655.52
2022-12-05T19:34:41.185Z,100653.90
2022-12-05T19:37:11.887Z,100652.55
2022-12-05T19:39:43.315Z,100653.15
2022-12-05T19:42:13.962Z,100651.91
2022-12-05T19:44:45.286Z,100653.73
2022-12-05T19:47:16.297Z,100653.37
2022-12-05T19:49:47.120Z,100649.83
2022-12-05T19:52:18.203Z,100648.73
2022-12-05T19:54:49.022Z,100641.30
2022-12-05T19:57:19.781Z,100641.26
2022-12-05T19:59:52.230Z,100639.14
2022-12-05T20:02:24.149Z,100640.39
2022-12-05T20:04:54.982Z,100645.38
2022-12-05T20:07:26.147Z,100649.83
2022-12-05T20:09:57.129Z,100646.23
2022-12-05T20:12:28.009Z,100646.98
2022-12-05T20:14:58.796Z,100646.84
2022-12-05T20:17:29.696Z,100644.04
2022-12-05T20:20:00.647Z,100651.26
2022-12-05T20:22:32.003Z,100647.54
2022-12-05T20:25:03.429Z,100645.77
2022-12-05T20:27:35.357Z,100657.02
2022-12-05T20:30:07.668Z,100657.52
2022-12-05T20:32:38.453Z,100658.40
2022-12-05T20:35:10.526Z,100652.98
2022-12-05T20:37:41.375Z,100654.73
2022-12-05T20:40:13.275Z,100652.60
2022-12-05T20:42:46.780Z,100651.21
2022-12-05T20:45:17.650Z,100650.31
2022-12-05T20:47:48.437Z,100644.20
2022-12-05T20:50:19.202Z,100644.16
2022-12-05T20:52:49.812Z,100640.36
2022-12-05T20:55:20.674Z,100639.96
2022-12-05T20:57:51.353Z,100634.98
2022-12-05T21:00:24.346Z,100631.64
2022-12-05T21:02:56.709Z,100630.95
2022-12-05T21:05:27.602Z,100629.84
2022-12-05T21:07:58.307Z,100624.88
2022-12-05T21:10:29.081Z,100620.38
2022-12-05T21:12:59.720Z,100622.13
2022-12-05T21:15:30.380Z,100621.75
2022-12-05T21:18:01.211Z,100622.77
2022-12-05T21:20:31.916Z,100625.39
2022-12-05T21:23:02.659Z,100630.98
2022-12-05T21:25:33.635Z,100632.22
2022-12-05T21:28:04.384Z,100633.44
2022-12-05T21:30:37.227Z,100627.19
2022-12-05T21:33:08.018Z,100628.11
2022-12-05T21:35:38.784Z,100627.89
2022-12-05T21:38:09.730Z,100625.55
2022-12-05T21:40:43.161Z,100625.52
2022-12-05T21:43:13.832Z,100622.01
2022-12-05T21:45:48.966Z,100620.67
2022-12-05T21:48:23.474Z,100620.90
2022-12-05T21:50:54.490Z,100621.19
2022-12-05T21:53:25.207Z,100622.81
2022-12-05T21:56:02.973Z,100620.48
2022-12-05T21:58:38.046Z,100619.12
2022-12-05T22:01:15.097Z,100611.34
2022-12-05T22:03:45.809Z,100601.70
2022-12-05T22:06:16.816Z,100598.78
2022-12-05T22:08:47.799Z,100606.33
2022-12-05T22:11:20.841Z,100606.91
2022-12-05T22:13:52.398Z,100611.13
2022-12-05T22:16:29.028Z,100610.88
2022-12-05T22:19:03.477Z,100612.02
2022-12-05T22:21:34.869Z,100613.94
2022-12-05T22:24:06.007Z,100615.30
2022-12-05T22:26:36.633Z,100617.46
2022-12-05T22:29:07.328Z,100621.69
2022-12-05T22:31:37.935Z,100618.08
2022-12-05T22:34:08.725Z,100616.45
2022-12-05T22:36:39.565Z,100613.60
2022-12-05T22:39:12.900Z,100610.91
2022-12-05T22:41:43.575Z,100607.77
2022-12-05T22:44:14.407Z,100609.69
2022-12-05T22:46:45.301Z,100603.48
2022-12-05T22:49:19.943Z,100596.14
2022-12-05T22:51:53.417Z,100594.38
2022-12-05T22:54:29.942Z,100595.42
2022-12-05T22:57:00.946Z,100592.31
2022-12-05T22:59:31.614Z,100588.38
2022-12-05T23:02:02.402Z,100585.05
2022-12-05T23:04:33.049Z,100584.51
2022-12-05T23:07:03.908Z,100579.48
2022-12-05T23:09:34.568Z,100576.50
2022-12-05T23:12:05.839Z,100576.91
2022-12-05T23:14:36.549Z,100572.09
2022-12-05T23:17:07.372Z,100573.73
2022-12-05T23:19:38.111Z,100568.48
2022-12-05T23:22:09.018Z,100572.72
2022-12-05T23:24:39.690Z,100570.08
2022-12-05T23:27:10.416Z,100566.35
2022-12-05T23:29:42.505Z,100561.55
2022-12-05T23:32:13.251Z,100558.78
2022-12-05T23:34:43.860Z,100551.54
2022-12-05T23:37:14.848Z,100547.28
2022-12-05T23:39:46.196Z,100543.09
2022-12-05T23:42:17.547Z,100544.52
2022-12-05T23:44:48.290Z,100540.91
2022-12-05T23:47:19.076Z,100540.15
2022-12-05T23:49:49.907Z,100540.69
2022-12-05T23:52:20.653Z,100541.45
2022-12-05T23:54:52.422Z,100538.37
2022-12-05T23:57:23.465Z,100538.10
2022-12-05T23:59:54.189Z,100538.24
